sensor_id;sensor_type;location;lat;lon;timestamp;P1;durP1;ratioP1;P2;durP2;ratioP2
31764;SDS011;18338;53.240;8.798;2022-08-11T00:01:14;5.72;;;4.95;;
31764;SDS011;18338;53.240;8.798;2022-08-11T00:03:49;4.97;;;4.53;;
31764;SDS011;18338;53.240;8.798;2022-08-11T00:06:24;7.07;;;4.82;;
31764;SDS011;18338;53.240;8.798;2022-08-11T00:08:57;6.53;;;4.80;;
31764;SDS011;18338;53.240;8.798;2022-08-11T00:11:30;4.93;;;4.53;;
31764;SDS011;18338;53.240;8.798;2022-08-11T00:16:53;6.13;;;4.05;;
31764;SDS011;18338;53.240;8.798;2022-08-11T00:19:24;5.50;;;5.00;;
31764;SDS011;18338;53.240;8.798;2022-08-11T00:22:19;5.55;;;4.82;;
31764;SDS011;18338;53.240;8.798;2022-08-11T00:24:46;6.63;;;5.03;;
31764;SDS011;18338;53.240;8.798;2022-08-11T00:27:35;7.53;;;5.10;;
31764;SDS011;18338;53.240;8.798;2022-08-11T00:30:03;6.57;;;5.00;;
31764;SDS011;18338;53.240;8.798;2022-08-11T00:32:32;5.10;;;4.60;;
31764;SDS011;18338;53.240;8.798;2022-08-11T00:34:59;6.05;;;5.05;;
31764;SDS011;18338;53.240;8.798;2022-08-11T00:37:48;5.38;;;4.88;;
31764;SDS011;18338;53.240;8.798;2022-08-11T00:40:21;5.50;;;5.00;;
31764;SDS011;18338;53.240;8.798;2022-08-11T00:46:11;7.35;;;5.25;;
31764;SDS011;18338;53.240;8.798;2022-08-11T00:51:21;6.55;;;5.15;;
31764;SDS011;18338;53.240;8.798;2022-08-11T00:57:17;5.55;;;4.68;;
31764;SDS011;18338;53.240;8.798;2022-08-11T01:00:13;5.80;;;5.18;;
31764;SDS011;18338;53.240;8.798;2022-08-11T01:03:01;5.97;;;4.65;;
31764;SDS011;18338;53.240;8.798;2022-08-11T01:06:02;6.82;;;4.97;;
31764;SDS011;18338;53.240;8.798;2022-08-11T01:11:58;6.78;;;5.53;;
31764;SDS011;18338;53.240;8.798;2022-08-11T01:29:22;5.97;;;5.43;;
31764;SDS011;18338;53.240;8.798;2022-08-11T01:44:20;6.38;;;5.07;;
31764;SDS011;18338;53.240;8.798;2022-08-11T01:47:16;6.55;;;5.22;;
31764;SDS011;18338;53.240;8.798;2022-08-11T01:50:42;7.05;;;5.90;;
31764;SDS011;18338;53.240;8.798;2022-08-11T01:53:39;7.50;;;5.63;;
31764;SDS011;18338;53.240;8.798;2022-08-11T01:56:22;7.35;;;6.00;;
31764;SDS011;18338;53.240;8.798;2022-08-11T02:04:24;7.82;;;6.70;;
31764;SDS011;18338;53.240;8.798;2022-08-11T02:10:21;6.93;;;6.32;;
31764;SDS011;18338;53.240;8.798;2022-08-11T02:16:14;6.78;;;5.95;;
31764;SDS011;18338;53.240;8.798;2022-08-11T02:18:55;7.10;;;6.40;;
31764;SDS011;18338;53.240;8.798;2022-08-11T02:22:22;6.97;;;6.28;;
31764;SDS011;18338;53.240;8.798;2022-08-11T02:25:23;7.05;;;6.35;;
31764;SDS011;18338;53.240;8.798;2022-08-11T02:28:18;9.27;;;6.60;;
31764;SDS011;18338;53.240;8.798;2022-08-11T02:31:18;8.40;;;6.70;;
31764;SDS011;18338;53.240;8.798;2022-08-11T02:34:37;9.73;;;6.32;;
31764;SDS011;18338;53.240;8.798;2022-08-11T02:42:32;7.00;;;6.28;;
31764;SDS011;18338;53.240;8.798;2022-08-11T02:48:35;7.53;;;6.65;;
31764;SDS011;18338;53.240;8.798;2022-08-11T02:51:50;8.93;;;7.07;;
31764;SDS011;18338;53.240;8.798;2022-08-11T02:58:01;9.05;;;7.50;;
31764;SDS011;18338;53.240;8.798;2022-08-11T03:00:46;12.20;;;8.48;;
31764;SDS011;18338;53.240;8.798;2022-08-11T03:03:45;10.25;;;8.32;;
31764;SDS011;18338;53.240;8.798;2022-08-11T03:06:33;8.43;;;7.43;;
31764;SDS011;18338;53.240;8.798;2022-08-11T03:09:29;8.00;;;7.20;;
31764;SDS011;18338;53.240;8.798;2022-08-11T03:12:14;8.27;;;7.38;;
31764;SDS011;18338;53.240;8.798;2022-08-11T03:15:15;9.55;;;7.55;;
31764;SDS011;18338;53.240;8.798;2022-08-11T03:21:06;8.65;;;7.63;;
31764;SDS011;18338;53.240;8.798;2022-08-11T03:23:38;8.25;;;7.40;;
31764;SDS011;18338;53.240;8.798;2022-08-11T03:29:26;8.45;;;7.57;;
31764;SDS011;18338;53.240;8.798;2022-08-11T03:32:01;8.10;;;7.30;;
31764;SDS011;18338;53.240;8.798;2022-08-11T03:34:35;10.00;;;7.88;;
31764;SDS011;18338;53.240;8.798;2022-08-11T03:43:21;10.52;;;8.05;;
31764;SDS011;18338;53.240;8.798;2022-08-11T03:46:58;10.57;;;7.07;;
31764;SDS011;18338;53.240;8.798;2022-08-11T03:49:55;12.85;;;7.65;;
31764;SDS011;18338;53.240;8.798;2022-08-11T03:52:30;8.10;;;7.30;;
31764;SDS011;18338;53.240;8.798;2022-08-11T03:55:18;9.68;;;7.85;;
31764;SDS011;18338;53.240;8.798;2022-08-11T04:01:03;10.23;;;8.38;;
31764;SDS011;18338;53.240;8.798;2022-08-11T04:07:13;11.70;;;8.13;;
31764;SDS011;18338;53.240;8.798;2022-08-11T04:12:45;14.43;;;8.77;;
31764;SDS011;18338;53.240;8.798;2022-08-11T04:21:50;11.32;;;8.20;;
31764;SDS011;18338;53.240;8.798;2022-08-11T04:24:40;12.05;;;9.70;;
31764;SDS011;18338;53.240;8.798;2022-08-11T04:30:39;14.02;;;10.00;;
31764;SDS011;18338;53.240;8.798;2022-08-11T04:58:16;12.35;;;8.98;;
31764;SDS011;18338;53.240;8.798;2022-08-11T05:12:55;14.02;;;9.05;;
31764;SDS011;18338;53.240;8.798;2022-08-11T05:15:47;12.18;;;8.63;;
31764;SDS011;18338;53.240;8.798;2022-08-11T05:18:37;9.55;;;8.10;;
31764;SDS011;18338;53.240;8.798;2022-08-11T05:21:31;9.93;;;8.70;;
31764;SDS011;18338;53.240;8.798;2022-08-11T05:24:23;8.93;;;8.02;;
31764;SDS011;18338;53.240;8.798;2022-08-11T05:27:34;8.98;;;7.28;;
31764;SDS011;18338;53.240;8.798;2022-08-11T05:30:25;8.38;;;7.50;;
31764;SDS011;18338;53.240;8.798;2022-08-11T05:33:21;8.65;;;7.75;;
31764;SDS011;18338;53.240;8.798;2022-08-11T05:36:16;7.32;;;6.68;;
31764;SDS011;18338;53.240;8.798;2022-08-11T05:39:06;8.00;;;6.65;;
31764;SDS011;18338;53.240;8.798;2022-08-11T05:42:01;7.40;;;6.70;;
31764;SDS011;18338;53.240;8.798;2022-08-11T05:45:01;6.85;;;6.18;;
31764;SDS011;18338;53.240;8.798;2022-08-11T05:48:13;6.68;;;5.95;;
31764;SDS011;18338;53.240;8.798;2022-08-11T05:50:59;7.38;;;6.38;;
31764;SDS011;18338;53.240;8.798;2022-08-11T05:53:57;8.48;;;5.68;;
31764;SDS011;18338;53.240;8.798;2022-08-11T05:56:58;6.78;;;6.15;;
31764;SDS011;18338;53.240;8.798;2022-08-11T05:59:26;6.07;;;5.57;;
31764;SDS011;18338;53.240;8.798;2022-08-11T06:02:01;6.13;;;5.53;;
31764;SDS011;18338;53.240;8.798;2022-08-11T06:04:29;5.72;;;5.22;;
31764;SDS011;18338;53.240;8.798;2022-08-11T06:06:58;5.28;;;4.82;;
31764;SDS011;18338;53.240;8.798;2022-08-11T06:09:32;5.95;;;4.38;;
31764;SDS011;18338;53.240;8.798;2022-08-11T06:12:16;5.95;;;5.07;;
31764;SDS011;18338;53.240;8.798;2022-08-11T06:14:49;5.05;;;4.55;;
31764;SDS011;18338;53.240;8.798;2022-08-11T06:17:25;5.43;;;4.97;;
31764;SDS011;18338;53.240;8.798;2022-08-11T06:20:08;5.28;;;4.70;;
31764;SDS011;18338;53.240;8.798;2022-08-11T06:22:38;5.28;;;4.70;;
31764;SDS011;18338;53.240;8.798;2022-08-11T06:25:09;4.50;;;4.10;;
31764;SDS011;18338;53.240;8.798;2022-08-11T06:27:37;5.47;;;4.53;;
31764;SDS011;18338;53.240;8.798;2022-08-11T06:30:05;4.65;;;4.10;;
31764;SDS011;18338;53.240;8.798;2022-08-11T06:32:40;4.68;;;4.28;;
31764;SDS011;18338;53.240;8.798;2022-08-11T06:35:14;4.20;;;3.90;;
31764;SDS011;18338;53.240;8.798;2022-08-11T06:43:45;4.32;;;3.60;;
31764;SDS011;18338;53.240;8.798;2022-08-11T06:46:29;3.78;;;3.40;;
31764;SDS011;18338;53.240;8.798;2022-08-11T06:49:01;3.70;;;3.40;;
31764;SDS011;18338;53.240;8.798;2022-08-11T06:51:28;5.07;;;4.03;;
31764;SDS011;18338;53.240;8.798;2022-08-11T06:53:59;3.47;;;3.17;;
31764;SDS011;18338;53.240;8.798;2022-08-11T06:56:31;3.65;;;3.22;;
31764;SDS011;18338;53.240;8.798;2022-08-11T06:59:40;4.45;;;3.35;;
31764;SDS011;18338;53.240;8.798;2022-08-11T07:02:31;5.50;;;3.60;;
31764;SDS011;18338;53.240;8.798;2022-08-11T07:05:03;6.57;;;3.58;;
31764;SDS011;18338;53.240;8.798;2022-08-11T07:10:27;3.47;;;2.88;;
31764;SDS011;18338;53.240;8.798;2022-08-11T07:13:39;4.90;;;3.35;;
31764;SDS011;18338;53.240;8.798;2022-08-11T07:16:26;3.78;;;3.47;;
31764;SDS011;18338;53.240;8.798;2022-08-11T07:19:00;4.07;;;3.00;;
31764;SDS011;18338;53.240;8.798;2022-08-11T07:21:49;6.25;;;3.15;;
31764;SDS011;18338;53.240;8.798;2022-08-11T07:24:45;3.03;;;2.60;;
31764;SDS011;18338;53.240;8.798;2022-08-11T07:27:43;3.20;;;2.72;;
31764;SDS011;18338;53.240;8.798;2022-08-11T07:30:31;4.43;;;2.55;;
31764;SDS011;18338;53.240;8.798;2022-08-11T07:33:00;4.15;;;3.00;;
31764;SDS011;18338;53.240;8.798;2022-08-11T07:38:02;2.90;;;2.70;;
31764;SDS011;18338;53.240;8.798;2022-08-11T07:40:33;3.00;;;2.67;;
31764;SDS011;18338;53.240;8.798;2022-08-11T07:43:01;3.03;;;2.00;;
31764;SDS011;18338;53.240;8.798;2022-08-11T07:45:29;4.53;;;2.28;;
31764;SDS011;18338;53.240;8.798;2022-08-11T07:48:15;3.55;;;2.40;;
31764;SDS011;18338;53.240;8.798;2022-08-11T07:51:01;7.18;;;2.35;;
31764;SDS011;18338;53.240;8.798;2022-08-11T07:53:47;3.30;;;2.80;;
31764;SDS011;18338;53.240;8.798;2022-08-11T07:56:33;3.40;;;2.72;;
31764;SDS011;18338;53.240;8.798;2022-08-11T07:59:22;3.13;;;2.35;;
31764;SDS011;18338;53.240;8.798;2022-08-11T08:02:28;3.13;;;2.83;;
31764;SDS011;18338;53.240;8.798;2022-08-11T08:05:15;4.30;;;3.03;;
31764;SDS011;18338;53.240;8.798;2022-08-11T08:08:01;5.18;;;2.22;;
31764;SDS011;18338;53.240;8.798;2022-08-11T08:10:48;4.95;;;3.28;;
31764;SDS011;18338;53.240;8.798;2022-08-11T08:13:33;5.38;;;2.92;;
31764;SDS011;18338;53.240;8.798;2022-08-11T08:16:21;3.42;;;2.60;;
31764;SDS011;18338;53.240;8.798;2022-08-11T08:19:06;3.08;;;1.95;;
31764;SDS011;18338;53.240;8.798;2022-08-11T08:21:38;6.80;;;2.60;;
31764;SDS011;18338;53.240;8.798;2022-08-11T08:24:10;4.32;;;2.53;;
31764;SDS011;18338;53.240;8.798;2022-08-11T08:26:39;2.65;;;2.30;;
31764;SDS011;18338;53.240;8.798;2022-08-11T08:29:27;6.07;;;2.38;;
31764;SDS011;18338;53.240;8.798;2022-08-11T08:32:16;2.45;;;2.25;;
31764;SDS011;18338;53.240;8.798;2022-08-11T08:34:45;2.28;;;1.95;;
31764;SDS011;18338;53.240;8.798;2022-08-11T08:37:12;3.40;;;1.98;;
31764;SDS011;18338;53.240;8.798;2022-08-11T08:40:00;2.40;;;1.92;;
31764;SDS011;18338;53.240;8.798;2022-08-11T08:42:28;1.90;;;1.65;;
31764;SDS011;18338;53.240;8.798;2022-08-11T08:45:04;2.60;;;1.50;;
31764;SDS011;18338;53.240;8.798;2022-08-11T08:47:37;1.77;;;1.67;;
31764;SDS011;18338;53.240;8.798;2022-08-11T08:50:09;2.22;;;1.80;;
31764;SDS011;18338;53.240;8.798;2022-08-11T08:52:44;5.65;;;1.88;;
31764;SDS011;18338;53.240;8.798;2022-08-11T08:55:16;2.17;;;1.98;;
31764;SDS011;18338;53.240;8.798;2022-08-11T08:57:46;2.70;;;1.50;;
31764;SDS011;18338;53.240;8.798;2022-08-11T09:00:17;1.95;;;1.60;;
31764;SDS011;18338;53.240;8.798;2022-08-11T09:02:56;2.78;;;1.90;;
31764;SDS011;18338;53.240;8.798;2022-08-11T09:05:23;3.22;;;1.95;;
31764;SDS011;18338;53.240;8.798;2022-08-11T09:07:52;1.50;;;1.40;;
31764;SDS011;18338;53.240;8.798;2022-08-11T09:10:20;3.30;;;1.25;;
31764;SDS011;18338;53.240;8.798;2022-08-11T09:12:47;2.80;;;1.48;;
31764;SDS011;18338;53.240;8.798;2022-08-11T09:15:24;4.13;;;1.50;;
31764;SDS011;18338;53.240;8.798;2022-08-11T09:17:53;2.63;;;1.50;;
31764;SDS011;18338;53.240;8.798;2022-08-11T09:20:29;1.85;;;1.25;;
31764;SDS011;18338;53.240;8.798;2022-08-11T09:23:04;3.70;;;1.25;;
31764;SDS011;18338;53.240;8.798;2022-08-11T09:26:12;2.50;;;1.45;;
31764;SDS011;18338;53.240;8.798;2022-08-11T09:28:58;1.42;;;1.25;;
31764;SDS011;18338;53.240;8.798;2022-08-11T09:31:30;2.85;;;1.27;;
31764;SDS011;18338;53.240;8.798;2022-08-11T09:34:05;1.55;;;1.40;;
31764;SDS011;18338;53.240;8.798;2022-08-11T09:36:33;2.85;;;1.48;;
31764;SDS011;18338;53.240;8.798;2022-08-11T09:39:19;1.25;;;1.15;;
31764;SDS011;18338;53.240;8.798;2022-08-11T09:42:04;1.52;;;1.10;;
31764;SDS011;18338;53.240;8.798;2022-08-11T09:44:41;1.27;;;1.17;;
31764;SDS011;18338;53.240;8.798;2022-08-11T09:47:20;3.53;;;1.88;;
31764;SDS011;18338;53.240;8.798;2022-08-11T09:49:52;6.03;;;1.60;;
31764;SDS011;18338;53.240;8.798;2022-08-11T09:52:28;1.80;;;1.20;;
31764;SDS011;18338;53.240;8.798;2022-08-11T09:54:57;1.42;;;1.33;;
31764;SDS011;18338;53.240;8.798;2022-08-11T09:57:24;1.98;;;1.13;;
31764;SDS011;18338;53.240;8.798;2022-08-11T10:00:10;1.95;;;1.33;;
31764;SDS011;18338;53.240;8.798;2022-08-11T10:02:48;2.08;;;1.42;;
31764;SDS011;18338;53.240;8.798;2022-08-11T10:05:18;2.63;;;1.35;;
31764;SDS011;18338;53.240;8.798;2022-08-11T10:08:04;1.25;;;1.15;;
31764;SDS011;18338;53.240;8.798;2022-08-11T10:10:37;1.70;;;1.50;;
31764;SDS011;18338;53.240;8.798;2022-08-11T10:13:09;1.75;;;1.20;;
31764;SDS011;18338;53.240;8.798;2022-08-11T10:16:00;3.03;;;1.38;;
31764;SDS011;18338;53.240;8.798;2022-08-11T10:18:42;3.08;;;1.23;;
31764;SDS011;18338;53.240;8.798;2022-08-11T10:21:34;7.15;;;1.50;;
31764;SDS011;18338;53.240;8.798;2022-08-11T10:24:02;1.60;;;1.30;;
31764;SDS011;18338;53.240;8.798;2022-08-11T10:26:50;1.38;;;1.10;;
31764;SDS011;18338;53.240;8.798;2022-08-11T10:29:30;5.82;;;1.40;;
31764;SDS011;18338;53.240;8.798;2022-08-11T10:32:18;7.38;;;1.80;;
31764;SDS011;18338;53.240;8.798;2022-08-11T10:35:25;4.10;;;1.27;;
31764;SDS011;18338;53.240;8.798;2022-08-11T10:37:53;3.10;;;1.33;;
31764;SDS011;18338;53.240;8.798;2022-08-11T10:40:34;1.48;;;1.17;;
31764;SDS011;18338;53.240;8.798;2022-08-11T10:43:05;1.90;;;1.20;;
31764;SDS011;18338;53.240;8.798;2022-08-11T10:45:39;2.80;;;1.30;;
31764;SDS011;18338;53.240;8.798;2022-08-11T10:48:28;2.83;;;1.10;;
31764;SDS011;18338;53.240;8.798;2022-08-11T10:51:03;1.75;;;0.93;;
31764;SDS011;18338;53.240;8.798;2022-08-11T10:53:39;1.20;;;1.10;;
31764;SDS011;18338;53.240;8.798;2022-08-11T10:56:37;1.90;;;1.40;;
31764;SDS011;18338;53.240;8.798;2022-08-11T10:59:25;1.10;;;1.00;;
31764;SDS011;18338;53.240;8.798;2022-08-11T11:01:53;1.70;;;1.10;;
31764;SDS011;18338;53.240;8.798;2022-08-11T11:07:21;1.50;;;1.35;;
31764;SDS011;18338;53.240;8.798;2022-08-11T11:09:51;1.70;;;1.10;;
31764;SDS011;18338;53.240;8.798;2022-08-11T11:12:23;2.63;;;1.17;;
31764;SDS011;18338;53.240;8.798;2022-08-11T11:15:15;1.58;;;1.27;;
31764;SDS011;18338;53.240;8.798;2022-08-11T11:18:05;4.63;;;1.02;;
31764;SDS011;18338;53.240;8.798;2022-08-11T11:20:42;2.25;;;1.13;;
31764;SDS011;18338;53.240;8.798;2022-08-11T11:25:57;2.45;;;1.50;;
31764;SDS011;18338;53.240;8.798;2022-08-11T11:31:44;3.30;;;1.35;;
31764;SDS011;18338;53.240;8.798;2022-08-11T11:34:51;1.45;;;1.10;;
31764;SDS011;18338;53.240;8.798;2022-08-11T11:37:31;1.30;;;1.10;;
31764;SDS011;18338;53.240;8.798;2022-08-11T11:40:00;2.13;;;1.23;;
31764;SDS011;18338;53.240;8.798;2022-08-11T11:42:43;1.52;;;1.10;;
31764;SDS011;18338;53.240;8.798;2022-08-11T11:45:11;1.58;;;1.35;;
31764;SDS011;18338;53.240;8.798;2022-08-11T11:47:50;1.45;;;1.27;;
31764;SDS011;18338;53.240;8.798;2022-08-11T11:53:16;1.40;;;1.30;;
31764;SDS011;18338;53.240;8.798;2022-08-11T11:55:45;2.17;;;1.13;;
31764;SDS011;18338;53.240;8.798;2022-08-11T11:58:20;1.77;;;1.40;;
31764;SDS011;18338;53.240;8.798;2022-08-11T12:01:29;1.50;;;1.40;;
31764;SDS011;18338;53.240;8.798;2022-08-11T12:03:59;2.10;;;1.33;;
31764;SDS011;18338;53.240;8.798;2022-08-11T12:06:32;1.08;;;1.08;;
31764;SDS011;18338;53.240;8.798;2022-08-11T12:09:02;1.73;;;1.50;;
31764;SDS011;18338;53.240;8.798;2022-08-11T12:11:32;1.45;;;1.35;;
31764;SDS011;18338;53.240;8.798;2022-08-11T12:14:19;2.95;;;1.38;;
31764;SDS011;18338;53.240;8.798;2022-08-11T12:16:47;1.80;;;1.33;;
31764;SDS011;18338;53.240;8.798;2022-08-11T12:19:18;3.80;;;1.30;;
31764;SDS011;18338;53.240;8.798;2022-08-11T12:21:50;2.42;;;1.30;;
31764;SDS011;18338;53.240;8.798;2022-08-11T12:24:42;3.58;;;1.40;;
31764;SDS011;18338;53.240;8.798;2022-08-11T12:27:29;2.10;;;1.23;;
31764;SDS011;18338;53.240;8.798;2022-08-11T12:29:59;2.65;;;1.40;;
31764;SDS011;18338;53.240;8.798;2022-08-11T12:32:31;2.13;;;1.25;;
31764;SDS011;18338;53.240;8.798;2022-08-11T12:35:01;2.55;;;1.17;;
31764;SDS011;18338;53.240;8.798;2022-08-11T12:37:30;1.60;;;1.23;;
31764;SDS011;18338;53.240;8.798;2022-08-11T12:40:06;2.97;;;1.50;;
31764;SDS011;18338;53.240;8.798;2022-08-11T12:43:18;2.30;;;1.55;;
31764;SDS011;18338;53.240;8.798;2022-08-11T12:46:07;1.90;;;1.20;;
31764;SDS011;18338;53.240;8.798;2022-08-11T12:48:41;1.50;;;1.40;;
31764;SDS011;18338;53.240;8.798;2022-08-11T12:51:35;2.63;;;1.30;;
31764;SDS011;18338;53.240;8.798;2022-08-11T12:57:14;3.75;;;1.60;;
31764;SDS011;18338;53.240;8.798;2022-08-11T13:00:17;1.83;;;1.15;;
31764;SDS011;18338;53.240;8.798;2022-08-11T13:03:04;1.30;;;1.20;;
31764;SDS011;18338;53.240;8.798;2022-08-11T13:05:53;3.08;;;1.30;;
31764;SDS011;18338;53.240;8.798;2022-08-11T13:08:23;1.40;;;1.10;;
31764;SDS011;18338;53.240;8.798;2022-08-11T13:10:52;1.42;;;1.33;;
31764;SDS011;18338;53.240;8.798;2022-08-11T13:13:39;1.30;;;1.20;;
31764;SDS011;18338;53.240;8.798;2022-08-11T13:16:22;1.33;;;1.23;;
31764;SDS011;18338;53.240;8.798;2022-08-11T13:18:51;1.30;;;1.20;;
31764;SDS011;18338;53.240;8.798;2022-08-11T13:21:19;1.25;;;1.15;;
31764;SDS011;18338;53.240;8.798;2022-08-11T13:23:48;1.50;;;0.98;;
31764;SDS011;18338;53.240;8.798;2022-08-11T13:26:31;1.73;;;1.05;;
31764;SDS011;18338;53.240;8.798;2022-08-11T13:29:19;1.38;;;1.10;;
31764;SDS011;18338;53.240;8.798;2022-08-11T13:31:47;2.38;;;1.27;;
31764;SDS011;18338;53.240;8.798;2022-08-11T13:34:15;3.05;;;1.40;;
31764;SDS011;18338;53.240;8.798;2022-08-11T13:36:43;1.50;;;1.40;;
31764;SDS011;18338;53.240;8.798;2022-08-11T13:39:10;1.65;;;1.55;;
31764;SDS011;18338;53.240;8.798;2022-08-11T13:41:39;1.35;;;1.05;;
31764;SDS011;18338;53.240;8.798;2022-08-11T13:44:10;1.00;;;0.90;;
31764;SDS011;18338;53.240;8.798;2022-08-11T13:46:50;2.85;;;1.50;;
31764;SDS011;18338;53.240;8.798;2022-08-11T13:49:38;2.30;;;1.40;;
31764;SDS011;18338;53.240;8.798;2022-08-11T13:52:10;1.27;;;1.17;;
31764;SDS011;18338;53.240;8.798;2022-08-11T13:54:40;1.20;;;1.17;;
31764;SDS011;18338;53.240;8.798;2022-08-11T13:57:09;2.05;;;1.27;;
31764;SDS011;18338;53.240;8.798;2022-08-11T14:00:00;1.70;;;1.30;;
31764;SDS011;18338;53.240;8.798;2022-08-11T14:02:50;2.67;;;1.40;;
31764;SDS011;18338;53.240;8.798;2022-08-11T14:05:21;1.83;;;1.38;;
31764;SDS011;18338;53.240;8.798;2022-08-11T14:07:59;1.42;;;1.10;;
31764;SDS011;18338;53.240;8.798;2022-08-11T14:10:28;2.25;;;1.50;;
31764;SDS011;18338;53.240;8.798;2022-08-11T14:13:02;3.35;;;1.52;;
31764;SDS011;18338;53.240;8.798;2022-08-11T14:15:52;2.08;;;1.40;;
31764;SDS011;18338;53.240;8.798;2022-08-11T14:18:28;1.52;;;1.42;;
31764;SDS011;18338;53.240;8.798;2022-08-11T14:21:02;3.22;;;1.58;;
31764;SDS011;18338;53.240;8.798;2022-08-11T14:23:52;3.90;;;1.60;;
31764;SDS011;18338;53.240;8.798;2022-08-11T14:26:26;2.75;;;1.67;;
31764;SDS011;18338;53.240;8.798;2022-08-11T14:31:34;2.00;;;1.65;;
31764;SDS011;18338;53.240;8.798;2022-08-11T14:34:05;2.03;;;1.50;;
31764;SDS011;18338;53.240;8.798;2022-08-11T14:36:38;2.83;;;1.60;;
31764;SDS011;18338;53.240;8.798;2022-08-11T14:39:15;2.63;;;1.58;;
31764;SDS011;18338;53.240;8.798;2022-08-11T14:41:48;3.85;;;1.73;;
31764;SDS011;18338;53.240;8.798;2022-08-11T14:44:41;1.60;;;1.40;;
31764;SDS011;18338;53.240;8.798;2022-08-11T14:47:30;5.38;;;1.90;;
31764;SDS011;18338;53.240;8.798;2022-08-11T14:50:17;2.30;;;1.60;;
31764;SDS011;18338;53.240;8.798;2022-08-11T14:52:51;4.68;;;2.22;;
31764;SDS011;18338;53.240;8.798;2022-08-11T14:55:25;2.35;;;1.55;;
31764;SDS011;18338;53.240;8.798;2022-08-11T14:58:16;2.70;;;1.42;;
31764;SDS011;18338;53.240;8.798;2022-08-11T15:00:48;3.38;;;1.50;;
31764;SDS011;18338;53.240;8.798;2022-08-11T15:03:25;3.92;;;1.52;;
31764;SDS011;18338;53.240;8.798;2022-08-11T15:05:56;1.65;;;1.52;;
31764;SDS011;18338;53.240;8.798;2022-08-11T15:08:30;1.55;;;1.45;;
31764;SDS011;18338;53.240;8.798;2022-08-11T15:11:27;3.42;;;1.98;;
31764;SDS011;18338;53.240;8.798;2022-08-11T15:14:30;2.33;;;1.60;;
31764;SDS011;18338;53.240;8.798;2022-08-11T15:17:21;5.47;;;1.98;;
31764;SDS011;18338;53.240;8.798;2022-08-11T15:20:09;1.83;;;1.70;;
31764;SDS011;18338;53.240;8.798;2022-08-11T15:22:59;2.80;;;2.20;;
31764;SDS011;18338;53.240;8.798;2022-08-11T15:25:48;2.38;;;1.45;;
31764;SDS011;18338;53.240;8.798;2022-08-11T15:28:22;1.48;;;1.38;;
31764;SDS011;18338;53.240;8.798;2022-08-11T15:31:09;2.15;;;1.67;;
31764;SDS011;18338;53.240;8.798;2022-08-11T15:33:54;1.92;;;1.63;;
31764;SDS011;18338;53.240;8.798;2022-08-11T15:36:44;2.47;;;1.48;;
31764;SDS011;18338;53.240;8.798;2022-08-11T15:39:34;2.28;;;1.55;;
31764;SDS011;18338;53.240;8.798;2022-08-11T15:42:27;2.15;;;1.63;;
31764;SDS011;18338;53.240;8.798;2022-08-11T15:45:13;2.75;;;1.50;;
31764;SDS011;18338;53.240;8.798;2022-08-11T15:48:07;1.40;;;1.30;;
31764;SDS011;18338;53.240;8.798;2022-08-11T15:50:38;2.40;;;1.60;;
31764;SDS011;18338;53.240;8.798;2022-08-11T15:53:27;2.50;;;1.70;;
31764;SDS011;18338;53.240;8.798;2022-08-11T15:56:05;1.50;;;1.40;;
31764;SDS011;18338;53.240;8.798;2022-08-11T15:58:35;4.03;;;1.45;;
31764;SDS011;18338;53.240;8.798;2022-08-11T16:01:45;1.50;;;1.40;;
31764;SDS011;18338;53.240;8.798;2022-08-11T16:04:33;2.55;;;1.40;;
31764;SDS011;18338;53.240;8.798;2022-08-11T16:07:07;1.88;;;1.55;;
31764;SDS011;18338;53.240;8.798;2022-08-11T16:09:42;2.38;;;1.60;;
31764;SDS011;18338;53.240;8.798;2022-08-11T16:12:59;3.10;;;1.60;;
31764;SDS011;18338;53.240;8.798;2022-08-11T16:15:28;1.60;;;1.50;;
31764;SDS011;18338;53.240;8.798;2022-08-11T16:18:21;4.22;;;1.45;;
31764;SDS011;18338;53.240;8.798;2022-08-11T16:21:10;1.98;;;1.85;;
31764;SDS011;18338;53.240;8.798;2022-08-11T16:23:59;2.90;;;1.50;;
31764;SDS011;18338;53.240;8.798;2022-08-11T16:26:32;3.47;;;1.35;;
31764;SDS011;18338;53.240;8.798;2022-08-11T16:29:22;1.77;;;1.67;;
31764;SDS011;18338;53.240;8.798;2022-08-11T16:31:50;4.90;;;1.45;;
31764;SDS011;18338;53.240;8.798;2022-08-11T16:34:39;2.90;;;1.65;;
31764;SDS011;18338;53.240;8.798;2022-08-11T16:37:33;3.83;;;1.67;;
31764;SDS011;18338;53.240;8.798;2022-08-11T16:40:21;3.90;;;1.83;;
31764;SDS011;18338;53.240;8.798;2022-08-11T16:42:51;1.80;;;1.50;;
31764;SDS011;18338;53.240;8.798;2022-08-11T16:45:40;2.42;;;1.60;;
31764;SDS011;18338;53.240;8.798;2022-08-11T16:48:29;2.00;;;1.80;;
31764;SDS011;18338;53.240;8.798;2022-08-11T16:51:04;3.72;;;1.80;;
31764;SDS011;18338;53.240;8.798;2022-08-11T16:53:37;2.40;;;1.40;;
31764;SDS011;18338;53.240;8.798;2022-08-11T16:56:30;1.88;;;1.40;;
31764;SDS011;18338;53.240;8.798;2022-08-11T16:59:35;6.18;;;1.40;;
31764;SDS011;18338;53.240;8.798;2022-08-11T17:02:16;1.83;;;1.35;;
31764;SDS011;18338;53.240;8.798;2022-08-11T17:05:14;1.77;;;1.23;;
31764;SDS011;18338;53.240;8.798;2022-08-11T17:08:19;2.70;;;1.45;;
31764;SDS011;18338;53.240;8.798;2022-08-11T17:11:23;2.28;;;1.50;;
31764;SDS011;18338;53.240;8.798;2022-08-11T17:14:21;1.55;;;1.17;;
31764;SDS011;18338;53.240;8.798;2022-08-11T17:17:12;1.35;;;1.25;;
31764;SDS011;18338;53.240;8.798;2022-08-11T17:19:49;2.25;;;1.48;;
31764;SDS011;18338;53.240;8.798;2022-08-11T17:22:39;2.80;;;1.45;;
31764;SDS011;18338;53.240;8.798;2022-08-11T17:25:26;1.23;;;1.10;;
31764;SDS011;18338;53.240;8.798;2022-08-11T17:27:54;1.42;;;1.30;;
31764;SDS011;18338;53.240;8.798;2022-08-11T17:30:22;2.63;;;1.27;;
31764;SDS011;18338;53.240;8.798;2022-08-11T17:33:10;1.40;;;1.17;;
31764;SDS011;18338;53.240;8.798;2022-08-11T17:35:57;2.25;;;1.33;;
31764;SDS011;18338;53.240;8.798;2022-08-11T17:38:26;1.75;;;1.50;;
31764;SDS011;18338;53.240;8.798;2022-08-11T17:40:56;2.78;;;1.40;;
31764;SDS011;18338;53.240;8.798;2022-08-11T17:43:49;2.22;;;1.10;;
31764;SDS011;18338;53.240;8.798;2022-08-11T17:46:36;1.35;;;1.20;;
31764;SDS011;18338;53.240;8.798;2022-08-11T17:49:30;2.20;;;1.50;;
31764;SDS011;18338;53.240;8.798;2022-08-11T17:52:04;3.03;;;1.50;;
31764;SDS011;18338;53.240;8.798;2022-08-11T17:54:51;1.88;;;1.30;;
31764;SDS011;18338;53.240;8.798;2022-08-11T17:57:38;2.00;;;1.40;;
31764;SDS011;18338;53.240;8.798;2022-08-11T18:00:25;2.08;;;1.40;;
31764;SDS011;18338;53.240;8.798;2022-08-11T18:02:53;1.63;;;1.20;;
31764;SDS011;18338;53.240;8.798;2022-08-11T18:05:41;4.05;;;1.55;;
31764;SDS011;18338;53.240;8.798;2022-08-11T18:08:11;3.63;;;1.55;;
31764;SDS011;18338;53.240;8.798;2022-08-11T18:10:58;2.75;;;1.60;;
31764;SDS011;18338;53.240;8.798;2022-08-11T18:14:05;2.58;;;1.35;;
31764;SDS011;18338;53.240;8.798;2022-08-11T18:16:52;3.13;;;1.30;;
31764;SDS011;18338;53.240;8.798;2022-08-11T18:19:38;2.55;;;1.50;;
31764;SDS011;18338;53.240;8.798;2022-08-11T18:22:24;5.38;;;1.80;;
31764;SDS011;18338;53.240;8.798;2022-08-11T18:25:20;1.60;;;1.50;;
31764;SDS011;18338;53.240;8.798;2022-08-11T18:28:11;2.97;;;1.48;;
31764;SDS011;18338;53.240;8.798;2022-08-11T18:30:59;1.45;;;1.33;;
31764;SDS011;18338;53.240;8.798;2022-08-11T18:33:49;4.68;;;1.58;;
31764;SDS011;18338;53.240;8.798;2022-08-11T18:36:40;1.95;;;1.70;;
31764;SDS011;18338;53.240;8.798;2022-08-11T18:39:33;2.55;;;1.70;;
31764;SDS011;18338;53.240;8.798;2022-08-11T18:42:22;1.63;;;1.35;;
31764;SDS011;18338;53.240;8.798;2022-08-11T18:45:09;3.30;;;1.50;;
31764;SDS011;18338;53.240;8.798;2022-08-11T18:48:11;1.60;;;1.50;;
31764;SDS011;18338;53.240;8.798;2022-08-11T18:51:02;2.00;;;1.40;;
31764;SDS011;18338;53.240;8.798;2022-08-11T18:54:02;3.15;;;1.73;;
31764;SDS011;18338;53.240;8.798;2022-08-11T18:56:52;5.07;;;1.70;;
31764;SDS011;18338;53.240;8.798;2022-08-11T18:59:40;3.13;;;1.60;;
31764;SDS011;18338;53.240;8.798;2022-08-11T19:02:27;2.20;;;1.85;;